Time;durP1;ratioP1;P1;durP2;ratioP2;P2;SDS_P1;SDS_P2;PMS_P1;PMS_P2;Temp;Humidity;BMP_temperature;BMP_pressure;BME280_temperature;BME280_humidity;BME280_pressure;Samples;Min_cycle;Max_cycle;Signal;HPM_P1;HPM_P2
2023/06/19 00:01:42;;;;;;;10.20;9.30;;;19.20;99.90;;;;;;5033992;28;20446;-69
2023/06/19 00:04:09;;;;;;;10.53;9.70;;;19.20;99.90;;;;;;5033588;28;20192;-69
2023/06/19 00:06:35;;;;;;;9.20;8.40;;;19.20;99.90;;;;;;5034058;28;20175;-70
2023/06/19 00:09:00;;;;;;;11.80;10.80;;;19.20;99.90;;;;;;5033680;28;20465;-70
2023/06/19 00:11:26;;;;;;;10.40;9.43;;;19.20;99.90;;;;;;5033929;28;20177;-68
2023/06/19 00:13:52;;;;;;;10.50;9.70;;;19.20;99.90;;;;;;5032849;28;20199;-67
2023/06/19 00:16:19;;;;;;;10.17;9.10;;;19.20;99.90;;;;;;5032632;28;20205;-69
2023/06/19 00:18:45;;;;;;;11.10;10.07;;;19.20;99.90;;;;;;5031557;28;20520;-69
2023/06/19 00:21:10;;;;;;;10.43;9.53;;;19.20;99.90;;;;;;5033294;28;20483;-68
2023/06/19 00:23:36;;;;;;;11.17;9.97;;;19.20;99.90;;;;;;5032923;28;20434;-69
2023/06/19 00:26:03;;;;;;;10.10;9.20;;;19.30;99.90;;;;;;5032728;28;20164;-69
2023/06/19 00:28:29;;;;;;;10.23;9.33;;;19.20;99.90;;;;;;5032856;28;20176;-69
2023/06/19 00:30:55;;;;;;;11.60;10.60;;;19.20;99.90;;;;;;5024626;28;20414;-69
2023/06/19 00:33:21;;;;;;;11.43;10.43;;;19.20;99.90;;;;;;5032522;28;20464;-68
2023/06/19 00:35:48;;;;;;;10.43;9.53;;;19.20;99.90;;;;;;5033053;28;20178;-68
2023/06/19 00:38:13;;;;;;;11.73;10.00;;;19.20;99.90;;;;;;5032398;28;20418;-69
2023/06/19 00:40:39;;;;;;;10.57;9.67;;;19.30;99.90;;;;;;5032666;28;20777;-69
2023/06/19 00:43:06;;;;;;;10.80;9.70;;;19.20;99.90;;;;;;5032403;28;20180;-68
2023/06/19 00:45:32;;;;;;;11.83;10.60;;;19.30;99.90;;;;;;5032342;28;20184;-69
2023/06/19 00:47:59;;;;;;;11.03;9.90;;;19.30;99.90;;;;;;5032667;28;20795;-69
2023/06/19 00:50:25;;;;;;;12.90;10.23;;;19.30;99.90;;;;;;5032686;28;20643;-69
2023/06/19 00:52:51;;;;;;;9.90;9.17;;;19.30;99.90;;;;;;5032626;28;20544;-68
2023/06/19 00:55:18;;;;;;;11.03;10.10;;;19.30;99.90;;;;;;5032358;28;21012;-68
2023/06/19 00:57:43;;;;;;;10.37;9.33;;;19.30;99.90;;;;;;5030768;28;20791;-68
2023/06/19 01:00:12;;;;;;;10.97;9.97;;;19.30;99.90;;;;;;5032639;28;20463;-68
2023/06/19 01:02:38;;;;;;;10.73;9.83;;;19.30;99.90;;;;;;5030985;28;20255;-67
2023/06/19 01:05:04;;;;;;;11.37;10.47;;;19.30;99.90;;;;;;5031999;28;20437;-68
2023/06/19 01:07:49;;;;;;;11.90;10.90;;;19.30;99.90;;;;;;5031800;28;20416;-68
2023/06/19 01:10:18;;;;;;;11.80;10.60;;;19.30;99.90;;;;;;5031985;28;20918;-68
2023/06/19 01:13:04;;;;;;;12.50;11.30;;;19.30;99.90;;;;;;5031835;28;20805;-69
2023/06/19 01:15:30;;;;;;;11.90;10.90;;;19.30;99.90;;;;;;5030488;28;20413;-69
2023/06/19 01:17:58;;;;;;;12.47;11.33;;;19.30;99.90;;;;;;5031601;28;20411;-68
2023/06/19 01:20:25;;;;;;;11.80;10.70;;;19.20;99.90;;;;;;5031774;28;20884;-68
2023/06/19 01:22:51;;;;;;;12.13;11.10;;;19.20;99.90;;;;;;5031582;28;20405;-68
2023/06/19 01:25:16;;;;;;;12.77;11.67;;;19.20;99.90;;;;;;5030844;28;20924;-70
2023/06/19 01:27:42;;;;;;;11.40;10.40;;;19.10;99.90;;;;;;5031757;28;20183;-69
2023/06/19 01:30:10;;;;;;;11.90;10.90;;;19.10;99.90;;;;;;5031785;28;20174;-68
2023/06/19 01:32:51;;;;;;;13.07;11.73;;;19.00;99.90;;;;;;5031568;28;20549;-69
2023/06/19 01:35:21;;;;;;;11.77;10.70;;;19.00;99.90;;;;;;5026347;28;20418;-70
2023/06/19 01:37:48;;;;;;;11.83;10.73;;;19.00;99.90;;;;;;5031478;28;20933;-70
2023/06/19 01:40:16;;;;;;;10.23;9.43;;;18.90;99.90;;;;;;5031707;28;20468;-69
2023/06/19 01:42:42;;;;;;;11.83;10.67;;;18.90;99.90;;;;;;5031581;28;20497;-69
2023/06/19 01:45:09;;;;;;;11.43;10.50;;;18.90;99.90;;;;;;5031508;28;20434;-69
2023/06/19 01:47:34;;;;;;;12.77;11.67;;;18.90;99.90;;;;;;5031355;28;20418;-69
2023/06/19 01:50:00;;;;;;;11.63;10.63;;;18.90;99.90;;;;;;5031454;28;20412;-70
2023/06/19 01:52:26;;;;;;;13.00;11.70;;;18.80;99.90;;;;;;5031762;28;20175;-69
2023/06/19 01:54:52;;;;;;;12.13;10.83;;;18.90;99.90;;;;;;5031186;28;20980;-69
2023/06/19 01:57:18;;;;;;;12.93;11.77;;;18.80;99.90;;;;;;5031044;28;20183;-69
2023/06/19 01:59:44;;;;;;;12.90;11.80;;;18.80;99.90;;;;;;5029584;28;20214;-69
2023/06/19 02:02:10;;;;;;;12.47;11.33;;;18.80;99.90;;;;;;5031331;28;20410;-69
2023/06/19 02:04:35;;;;;;;13.40;12.10;;;18.90;99.90;;;;;;5031036;28;20194;-69
2023/06/19 02:07:01;;;;;;;11.70;10.60;;;18.80;99.90;;;;;;5030987;28;20479;-68
2023/06/19 02:09:27;;;;;;;11.73;10.70;;;18.90;99.90;;;;;;5031173;28;20210;-68
2023/06/19 02:11:53;;;;;;;11.80;10.80;;;18.80;99.90;;;;;;5030983;28;20187;-68
2023/06/19 02:14:19;;;;;;;12.83;11.77;;;18.90;99.90;;;;;;5030971;28;20434;-69
2023/06/19 02:16:44;;;;;;;12.73;11.63;;;18.90;99.90;;;;;;5031345;28;20179;-70
2023/06/19 02:19:13;;;;;;;13.90;12.40;;;18.90;99.90;;;;;;5030922;28;20661;-69
2023/06/19 02:21:39;;;;;;;11.70;10.80;;;18.90;99.90;;;;;;5031119;28;20199;-69
2023/06/19 02:24:05;;;;;;;11.00;10.10;;;18.90;99.90;;;;;;5030719;28;20429;-68
2023/06/19 02:26:31;;;;;;;12.70;11.43;;;18.90;99.90;;;;;;5030667;28;20972;-68
2023/06/19 02:28:57;;;;;;;12.30;11.30;;;18.90;99.90;;;;;;5031018;28;20490;-68
2023/06/19 02:31:23;;;;;;;12.97;11.93;;;18.90;99.90;;;;;;5030888;28;20202;-70
2023/06/19 02:33:49;;;;;;;12.07;11.07;;;18.80;99.90;;;;;;5030772;28;20196;-68
2023/06/19 02:36:19;;;;;;;12.93;11.80;;;18.80;99.90;;;;;;5032271;28;20417;-68
2023/06/19 02:38:48;;;;;;;12.40;11.30;;;18.80;99.90;;;;;;5034571;28;20446;-70
2023/06/19 02:41:14;;;;;;;13.27;12.27;;;18.90;99.90;;;;;;5035405;28;20492;-68
2023/06/19 02:43:43;;;;;;;12.77;11.70;;;18.90;99.90;;;;;;5034509;28;20557;-68
2023/06/19 02:46:08;;;;;;;12.50;11.30;;;18.90;99.90;;;;;;5034612;28;20409;-68
2023/06/19 02:48:34;;;;;;;13.57;12.13;;;18.90;99.90;;;;;;5034410;28;20416;-67
2023/06/19 02:51:00;;;;;;;13.87;12.77;;;18.90;99.90;;;;;;5034555;28;20438;-68
2023/06/19 02:53:26;;;;;;;13.57;12.37;;;18.90;99.90;;;;;;5034280;28;20457;-69
2023/06/19 02:55:51;;;;;;;12.60;11.60;;;18.90;99.90;;;;;;5034246;28;20289;-69
2023/06/19 02:58:17;;;;;;;12.27;11.27;;;18.90;99.90;;;;;;5034255;28;20267;-67
2023/06/19 03:00:43;;;;;;;13.90;12.50;;;19.00;99.90;;;;;;5034521;28;20177;-68
2023/06/19 03:03:08;;;;;;;13.80;12.50;;;18.90;99.90;;;;;;5034237;28;20218;-69
2023/06/19 03:05:34;;;;;;;11.77;10.77;;;18.90;99.90;;;;;;5034061;28;20779;-69
2023/06/19 03:08:00;;;;;;;14.50;12.97;;;19.00;99.90;;;;;;5034202;28;20176;-69
2023/06/19 03:10:25;;;;;;;12.23;11.17;;;19.00;99.90;;;;;;5034189;28;20178;-69
2023/06/19 03:12:51;;;;;;;12.63;11.50;;;19.00;99.90;;;;;;5034737;28;20203;-70
2023/06/19 03:15:16;;;;;;;13.07;11.97;;;19.00;99.90;;;;;;5034300;28;20198;-70
2023/06/19 03:17:42;;;;;;;12.30;11.30;;;19.00;99.90;;;;;;5033973;28;20182;-70
2023/06/19 03:20:11;;;;;;;12.77;11.57;;;19.00;99.90;;;;;;5034001;28;20210;-69
2023/06/19 03:22:41;;;;;;;11.67;10.67;;;19.10;99.90;;;;;;5034064;28;20254;-68
2023/06/19 03:25:07;;;;;;;14.17;12.77;;;19.10;99.90;;;;;;5033798;28;20437;-70
2023/06/19 03:27:33;;;;;;;13.80;12.60;;;19.10;99.90;;;;;;5033801;28;20422;-68
2023/06/19 03:29:58;;;;;;;12.70;11.53;;;19.20;99.90;;;;;;5033838;28;20407;-69
2023/06/19 03:32:24;;;;;;;13.07;11.80;;;19.20;99.90;;;;;;5033921;28;20176;-71
2023/06/19 03:34:50;;;;;;;12.77;11.67;;;19.30;99.90;;;;;;5033479;28;20208;-70
2023/06/19 03:37:16;;;;;;;12.67;11.53;;;19.30;99.90;;;;;;5033664;28;20184;-68
2023/06/19 03:39:42;;;;;;;12.67;11.53;;;19.40;99.90;;;;;;5033459;28;20308;-68
2023/06/19 03:42:08;;;;;;;13.33;12.20;;;19.40;99.90;;;;;;5033791;28;20612;-68
2023/06/19 03:44:34;;;;;;;13.03;11.73;;;19.40;99.90;;;;;;5033646;28;20877;-68
2023/06/19 03:46:59;;;;;;;13.13;11.93;;;19.40;99.90;;;;;;5033129;28;20427;-68
2023/06/19 03:49:25;;;;;;;12.63;11.57;;;19.40;99.90;;;;;;5033041;28;20180;-68
2023/06/19 03:51:51;;;;;;;12.70;11.50;;;19.40;99.90;;;;;;5033615;28;20226;-69
2023/06/19 03:54:17;;;;;;;12.70;11.50;;;19.40;99.90;;;;;;5057559;23;20212;-70
2023/06/19 03:56:42;;;;;;;12.60;11.43;;;19.40;99.90;;;;;;5067524;28;20459;-71
2023/06/19 03:59:08;;;;;;;14.90;13.50;;;19.40;99.90;;;;;;5067101;28;20569;-71
2023/06/19 04:01:34;;;;;;;12.90;11.80;;;19.50;99.90;;;;;;5073509;28;20209;-70
2023/06/19 04:03:59;;;;;;;14.10;11.93;;;19.50;99.90;;;;;;5068796;28;20166;-71
2023/06/19 04:06:25;;;;;;;13.83;12.43;;;19.60;99.90;;;;;;5073090;28;20179;-71
2023/06/19 04:08:51;;;;;;;11.83;10.73;;;19.60;99.90;;;;;;5072205;28;20213;-71
2023/06/19 04:11:17;;;;;;;12.13;11.13;;;19.50;99.90;;;;;;5073233;28;20523;-71
2023/06/19 04:13:42;;;;;;;12.70;11.40;;;19.50;99.90;;;;;;5072957;28;20476;-70
2023/06/19 04:16:08;;;;;;;13.13;11.93;;;19.50;99.90;;;;;;5071704;28;20293;-72
2023/06/19 04:18:33;;;;;;;14.03;12.90;;;19.50;99.90;;;;;;5071620;28;20293;-69
2023/06/19 04:20:59;;;;;;;13.87;12.23;;;19.50;99.90;;;;;;5072916;28;20537;-69
2023/06/19 04:23:24;;;;;;;13.20;12.00;;;19.60;99.90;;;;;;5072782;28;20168;-71
2023/06/19 04:25:50;;;;;;;14.07;12.50;;;19.60;99.90;;;;;;5071955;28;20240;-70
2023/06/19 04:28:16;;;;;;;13.00;11.80;;;19.60;99.90;;;;;;5072965;28;20253;-70
2023/06/19 04:30:42;;;;;;;12.40;11.30;;;19.60;99.90;;;;;;5053071;28;20178;-71
2023/06/19 04:33:08;;;;;;;14.27;12.83;;;19.60;99.90;;;;;;5072981;28;20165;-70
2023/06/19 04:35:39;;;;;;;11.97;10.93;;;19.60;99.90;;;;;;5071000;28;20425;-71
2023/06/19 04:38:05;;;;;;;13.67;12.47;;;19.60;99.90;;;;;;5071462;28;20199;-70
2023/06/19 04:40:32;;;;;;;14.30;12.87;;;19.70;99.90;;;;;;5066293;28;20849;-70
2023/06/19 04:42:57;;;;;;;12.80;11.80;;;19.70;99.90;;;;;;5072709;28;20417;-71
2023/06/19 04:45:23;;;;;;;14.27;12.83;;;19.60;99.90;;;;;;5071049;28;20437;-71
2023/06/19 04:47:49;;;;;;;14.40;13.20;;;19.70;99.90;;;;;;5072380;28;20208;-71
2023/06/19 04:50:16;;;;;;;12.60;11.60;;;19.70;99.90;;;;;;5070866;28;20186;-69
2023/06/19 04:52:42;;;;;;;12.33;11.33;;;19.80;99.90;;;;;;5071270;28;20296;-70
2023/06/19 04:55:10;;;;;;;13.47;12.27;;;19.80;99.90;;;;;;5072071;28;20450;-71
2023/06/19 04:57:37;;;;;;;13.40;12.10;;;19.80;99.90;;;;;;5072487;28;20415;-70
2023/06/19 05:00:06;;;;;;;13.97;12.80;;;19.80;99.90;;;;;;5072203;28;20528;-70
2023/06/19 05:02:33;;;;;;;13.10;12.00;;;19.80;99.90;;;;;;5070687;28;20446;-71
2023/06/19 05:05:02;;;;;;;14.80;13.43;;;19.80;99.90;;;;;;5065474;28;20482;-70
2023/06/19 05:07:31;;;;;;;12.50;11.43;;;19.80;99.90;;;;;;5072063;28;20403;-71
2023/06/19 05:09:57;;;;;;;13.70;12.50;;;19.80;99.90;;;;;;5070126;28;20911;-70
2023/06/19 05:12:23;;;;;;;13.77;12.40;;;19.80;99.90;;;;;;5070697;28;20432;-70
2023/06/19 05:14:48;;;;;;;15.07;13.53;;;19.80;99.90;;;;;;5069899;28;20441;-70
2023/06/19 05:17:14;;;;;;;13.67;12.10;;;19.80;99.90;;;;;;5066158;28;20212;-70
2023/06/19 05:19:40;;;;;;;15.10;13.50;;;19.90;99.90;;;;;;5072010;28;20197;-70
2023/06/19 05:22:06;;;;;;;14.63;13.33;;;19.90;99.90;;;;;;5070250;28;20588;-71
2023/06/19 05:24:32;;;;;;;13.40;11.57;;;19.80;99.90;;;;;;5070273;28;20588;-70
2023/06/19 05:26:57;;;;;;;13.20;12.10;;;19.90;99.90;;;;;;5070207;28;20498;-70
2023/06/19 05:29:23;;;;;;;15.60;14.10;;;19.80;99.90;;;;;;5071712;28;20498;-70
2023/06/19 05:31:49;;;;;;;14.70;13.47;;;19.90;99.90;;;;;;5071293;28;20178;-70
2023/06/19 05:34:15;;;;;;;14.67;13.27;;;19.90;99.90;;;;;;5069887;28;20587;-70
2023/06/19 05:36:40;;;;;;;13.53;12.23;;;19.90;99.90;;;;;;5070241;28;20175;-70
2023/06/19 05:39:06;;;;;;;15.80;14.50;;;19.90;99.90;;;;;;5071440;28;20255;-70
2023/06/19 05:41:32;;;;;;;13.93;12.67;;;19.90;99.90;;;;;;5071399;28;20164;-71
2023/06/19 05:43:58;;;;;;;13.97;12.80;;;19.90;99.90;;;;;;5070240;28;20552;-70
2023/06/19 05:46:24;;;;;;;14.17;12.93;;;19.90;99.90;;;;;;5071206;28;20424;-70
2023/06/19 05:48:49;;;;;;;14.00;12.80;;;19.90;99.90;;;;;;5071344;28;20651;-70
2023/06/19 05:51:15;;;;;;;13.37;12.10;;;20.00;99.90;;;;;;5070339;28;20211;-71
2023/06/19 05:53:40;;;;;;;14.40;13.10;;;20.10;99.90;;;;;;5071348;28;20218;-70
2023/06/19 05:56:06;;;;;;;13.57;12.17;;;20.20;99.90;;;;;;5069646;28;20214;-71
2023/06/19 05:58:32;;;;;;;14.40;13.00;;;20.10;99.90;;;;;;5071236;28;20195;-72
2023/06/19 06:00:58;;;;;;;17.80;13.23;;;20.20;99.90;;;;;;5067392;28;20772;-71
2023/06/19 06:03:27;;;;;;;14.60;13.20;;;20.20;99.90;;;;;;5059062;28;20191;-70
2023/06/19 06:05:53;;;;;;;17.60;12.53;;;20.30;99.90;;;;;;5069673;28;20188;-70
2023/06/19 06:08:19;;;;;;;15.00;13.63;;;20.30;99.90;;;;;;5071420;28;20413;-70
2023/06/19 06:10:45;;;;;;;16.33;14.97;;;20.30;99.90;;;;;;5070877;28;20200;-68
2023/06/19 06:13:10;;;;;;;16.30;14.90;;;20.30;99.90;;;;;;5068620;28;20536;-70
2023/06/19 06:15:36;;;;;;;15.23;13.63;;;20.30;99.90;;;;;;5069594;28;20193;-70
2023/06/19 06:18:03;;;;;;;14.93;13.40;;;20.30;99.90;;;;;;5071152;28;20163;-70
2023/06/19 06:20:29;;;;;;;15.87;14.37;;;20.40;99.90;;;;;;5071139;28;20193;-71
2023/06/19 06:22:54;;;;;;;14.20;12.90;;;20.40;99.90;;;;;;5071093;28;20415;-71
2023/06/19 06:25:20;;;;;;;18.70;13.73;;;20.40;99.90;;;;;;5068264;28;20191;-71
2023/06/19 06:27:46;;;;;;;14.97;13.57;;;20.30;99.90;;;;;;5069896;28;20513;-70
2023/06/19 06:30:12;;;;;;;13.80;12.73;;;20.40;99.90;;;;;;5071141;28;20173;-70
2023/06/19 06:32:38;;;;;;;13.70;12.60;;;20.40;99.90;;;;;;5071045;28;20515;-71
2023/06/19 06:35:04;;;;;;;14.30;13.10;;;20.50;99.90;;;;;;5071099;28;20483;-73
2023/06/19 06:37:29;;;;;;;14.30;13.00;;;20.50;99.90;;;;;;5073114;28;20418;-67
2023/06/19 06:39:55;;;;;;;14.77;13.47;;;20.60;99.90;;;;;;5073342;28;20563;-70
2023/06/19 06:42:21;;;;;;;16.03;14.67;;;20.60;99.90;;;;;;5079601;28;20593;-69
2023/06/19 06:44:46;;;;;;;14.60;13.40;;;20.70;99.90;;;;;;5070788;28;20199;-70
2023/06/19 06:47:12;;;;;;;16.67;15.03;;;20.90;99.90;;;;;;5070907;28;20234;-69
2023/06/19 06:49:38;;;;;;;14.70;13.20;;;20.80;99.90;;;;;;5070883;28;20199;-69
2023/06/19 06:52:04;;;;;;;14.67;13.37;;;21.00;99.90;;;;;;5069590;28;20562;-70
2023/06/19 06:54:30;;;;;;;13.57;12.47;;;21.10;99.90;;;;;;5069521;28;20543;-70
2023/06/19 06:56:56;;;;;;;14.63;13.30;;;21.10;99.90;;;;;;5070786;28;20399;-70
2023/06/19 06:59:22;;;;;;;16.13;14.80;;;21.20;99.90;;;;;;5070637;28;20652;-72
2023/06/19 07:01:48;;;;;;;15.10;13.60;;;21.40;99.90;;;;;;5061301;28;20182;-70
2023/06/19 07:04:14;;;;;;;14.80;13.60;;;21.40;99.90;;;;;;5063988;28;20945;-70
2023/06/19 07:06:39;;;;;;;14.67;13.37;;;21.50;99.90;;;;;;5050706;28;20226;-70
2023/06/19 07:09:05;;;;;;;16.00;14.57;;;21.40;99.90;;;;;;5070617;28;20645;-71
2023/06/19 07:11:30;;;;;;;15.00;13.53;;;21.50;99.90;;;;;;5068187;28;20203;-71
2023/06/19 07:13:56;;;;;;;15.20;13.60;;;21.80;99.90;;;;;;5070617;28;20180;-71
2023/06/19 07:16:21;;;;;;;15.67;14.40;;;21.90;99.90;;;;;;5070596;28;20211;-70
2023/06/19 07:18:47;;;;;;;14.40;13.00;;;21.80;99.90;;;;;;5070320;28;20720;-71
2023/06/19 07:21:14;;;;;;;15.73;14.23;;;22.00;99.90;;;;;;5069296;28;20168;-70
2023/06/19 07:23:41;;;;;;;13.90;12.80;;;22.00;99.90;;;;;;5072817;28;20176;-72
2023/06/19 07:26:06;;;;;;;15.37;13.87;;;22.00;99.90;;;;;;5072652;28;20783;-71
2023/06/19 07:28:32;;;;;;;14.17;12.87;;;22.10;99.90;;;;;;5073842;28;20438;-71
2023/06/19 07:30:58;;;;;;;14.10;12.60;;;22.10;99.90;;;;;;5072925;28;20172;-71
2023/06/19 07:33:23;;;;;;;14.00;12.70;;;22.20;99.90;;;;;;5074011;28;20199;-71
2023/06/19 07:35:49;;;;;;;14.83;13.30;;;22.20;99.90;;;;;;5073704;28;20211;-69
2023/06/19 07:38:16;;;;;;;14.60;12.73;;;22.40;99.90;;;;;;5072370;28;20225;-71
2023/06/19 07:40:41;;;;;;;15.27;13.13;;;22.70;99.90;;;;;;5073768;28;20538;-71
2023/06/19 07:43:07;;;;;;;15.27;13.77;;;22.60;99.90;;;;;;5073723;28;20421;-71
2023/06/19 07:45:32;;;;;;;15.33;13.73;;;22.70;99.90;;;;;;5072439;28;20198;-71
2023/06/19 07:47:58;;;;;;;14.30;13.10;;;22.80;99.90;;;;;;5068762;28;20690;-71
2023/06/19 07:50:24;;;;;;;14.90;13.63;;;22.90;99.90;;;;;;5073712;28;20177;-71
2023/06/19 07:52:49;;;;;;;15.03;13.53;;;22.80;99.90;;;;;;5072243;28;20283;-71
2023/06/19 07:55:15;;;;;;;12.73;11.70;;;22.90;99.90;;;;;;5073508;28;20470;-71
2023/06/19 07:57:41;;;;;;;14.20;12.80;;;23.00;99.90;;;;;;5073197;28;20250;-72
2023/06/19 08:00:12;;;;;;;14.00;12.70;;;23.10;99.90;;;;;;5066601;28;20198;-71
2023/06/19 08:02:41;;;;;;;14.87;13.47;;;23.00;99.90;;;;;;5073370;28;20191;-70
2023/06/19 08:05:08;;;;;;;14.53;13.10;;;23.10;99.90;;;;;;5066834;28;20444;-71
2023/06/19 08:07:34;;;;;;;12.73;11.63;;;23.30;99.90;;;;;;5073247;28;20497;-71
2023/06/19 08:10:00;;;;;;;14.13;12.70;;;23.30;99.90;;;;;;5073231;28;20412;-71
2023/06/19 08:12:26;;;;;;;13.53;12.33;;;23.50;99.90;;;;;;5073474;28;20415;-71
2023/06/19 08:14:51;;;;;;;13.57;12.03;;;23.40;99.90;;;;;;5073061;28;20688;-71
2023/06/19 08:17:17;;;;;;;13.90;12.70;;;23.30;99.90;;;;;;5072199;28;20177;-71
2023/06/19 08:19:42;;;;;;;14.03;12.93;;;23.50;99.90;;;;;;5073000;28;20245;-69
2023/06/19 08:22:08;;;;;;;14.23;12.83;;;23.40;99.90;;;;;;5071331;28;20200;-71
2023/06/19 08:24:39;;;;;;;13.60;12.50;;;23.40;99.90;;;;;;5072654;28;20212;-71
2023/06/19 08:27:05;;;;;;;13.50;12.10;;;23.60;99.90;;;;;;5072972;28;20169;-71
2023/06/19 08:29:31;;;;;;;13.47;12.37;;;23.60;99.90;;;;;;5072811;28;20431;-70
2023/06/19 08:31:56;;;;;;;12.80;11.70;;;23.70;99.90;;;;;;5072900;28;20199;-70
2023/06/19 08:34:22;;;;;;;13.50;12.40;;;23.70;99.90;;;;;;5072664;28;20260;-70
2023/06/19 08:36:48;;;;;;;11.53;10.50;;;23.60;99.90;;;;;;5072792;28;20186;-70
2023/06/19 08:39:13;;;;;;;13.03;11.73;;;23.70;99.90;;;;;;5072559;28;20203;-71
2023/06/19 08:41:40;;;;;;;14.13;11.83;;;23.70;99.90;;;;;;5072486;28;20193;-70
2023/06/19 08:44:06;;;;;;;13.37;12.07;;;24.00;99.90;;;;;;5072820;28;20176;-71
2023/06/19 08:46:34;;;;;;;13.43;11.83;;;24.10;99.90;;;;;;5072556;28;20436;-71
2023/06/19 08:49:00;;;;;;;10.77;9.83;;;23.80;99.90;;;;;;5072419;28;20410;-70
2023/06/19 08:51:28;;;;;;;13.97;12.70;;;23.90;99.90;;;;;;5072532;28;20519;-70
2023/06/19 08:54:03;;;;;;;12.47;11.17;;;24.00;99.90;;;;;;5072090;28;20420;-69
2023/06/19 08:56:29;;;;;;;13.17;12.10;;;24.00;99.90;;;;;;5072575;28;20816;-72
2023/06/19 08:58:54;;;;;;;13.23;11.93;;;24.20;99.90;;;;;;5051560;28;20449;-71
2023/06/19 09:01:20;;;;;;;12.57;11.60;;;24.20;99.90;;;;;;5072324;28;20184;-71
2023/06/19 09:03:46;;;;;;;13.83;12.47;;;24.20;99.90;;;;;;5070773;28;20693;-70
2023/06/19 09:06:16;;;;;;;13.17;12.07;;;24.20;99.90;;;;;;5072052;28;20295;-71
2023/06/19 09:08:41;;;;;;;13.17;11.63;;;24.10;99.90;;;;;;5071947;28;20443;-71
2023/06/19 09:11:07;;;;;;;13.73;12.40;;;24.20;99.90;;;;;;5070996;28;20417;-71
2023/06/19 09:13:33;;;;;;;13.13;11.93;;;24.20;99.90;;;;;;5071879;28;20169;-72
2023/06/19 09:16:01;;;;;;;12.57;11.47;;;24.00;99.90;;;;;;5063381;28;20646;-71
2023/06/19 09:18:28;;;;;;;13.87;12.70;;;24.20;99.90;;;;;;5070153;28;20178;-70
2023/06/19 09:20:54;;;;;;;12.77;11.60;;;24.30;99.90;;;;;;5065222;28;20602;-71
2023/06/19 09:23:20;;;;;;;14.03;12.83;;;24.40;99.90;;;;;;5071999;28;20744;-72
2023/06/19 09:25:48;;;;;;;12.80;11.70;;;24.50;99.90;;;;;;5064660;28;20440;-71
2023/06/19 09:28:21;;;;;;;12.60;11.50;;;24.60;99.90;;;;;;5071862;28;20892;-72
2023/06/19 09:31:07;;;;;;;13.17;11.97;;;24.70;99.90;;;;;;5070349;28;20949;-71
2023/06/19 09:33:34;;;;;;;13.83;12.73;;;24.90;99.90;;;;;;5071854;28;20427;-70
2023/06/19 09:36:02;;;;;;;12.60;11.50;;;24.90;99.90;;;;;;5073130;28;20431;-70
2023/06/19 09:38:29;;;;;;;14.43;12.13;;;24.90;99.90;;;;;;5070049;28;20420;-70
2023/06/19 09:40:58;;;;;;;13.33;12.20;;;25.10;99.90;;;;;;5062113;28;20866;-69
2023/06/19 09:43:46;;;;;;;13.17;11.93;;;25.10;99.90;;;;;;5071549;28;20450;-71
2023/06/19 09:46:14;;;;;;;12.10;10.97;;;25.00;99.90;;;;;;5046544;28;20434;-71
2023/06/19 09:48:42;;;;;;;12.77;11.60;;;25.00;99.90;;;;;;5071271;28;20408;-70
2023/06/19 09:51:21;;;;;;;13.60;12.50;;;25.00;99.90;;;;;;5070227;28;20840;-72
2023/06/19 09:53:48;;;;;;;13.87;12.67;;;25.20;99.90;;;;;;5070086;28;20425;-70
2023/06/19 09:56:15;;;;;;;14.03;12.20;;;25.40;99.90;;;;;;5071101;28;20811;-71
2023/06/19 09:58:43;;;;;;;13.70;12.40;;;25.40;99.90;;;;;;5070373;28;20886;-70
2023/06/19 10:01:09;;;;;;;13.53;12.20;;;25.40;99.90;;;;;;5069972;28;20410;-70
2023/06/19 10:03:36;;;;;;;11.90;10.90;;;25.40;99.90;;;;;;5063376;28;20409;-70
2023/06/19 10:06:02;;;;;;;12.43;11.37;;;25.60;99.90;;;;;;5069033;28;21135;-71
2023/06/19 10:08:40;;;;;;;13.83;12.70;;;25.70;99.90;;;;;;5089782;22;20416;-69
2023/06/19 10:11:06;;;;;;;13.43;12.33;;;25.70;99.90;;;;;;5015946;28;20402;-69
2023/06/19 10:13:34;;;;;;;12.77;11.57;;;25.40;99.90;;;;;;5022720;28;20407;-69
2023/06/19 10:16:00;;;;;;;12.67;11.57;;;25.30;99.90;;;;;;5014166;28;20493;-67
2023/06/19 10:18:26;;;;;;;13.20;12.00;;;25.50;99.90;;;;;;5021478;28;20435;-68
2023/06/19 10:20:53;;;;;;;13.37;12.00;;;25.40;99.90;;;;;;5020024;28;20173;-71
2023/06/19 10:23:22;;;;;;;13.30;12.03;;;25.50;99.90;;;;;;5015251;28;20430;-70
2023/06/19 10:25:55;;;;;;;14.07;12.87;;;25.60;99.90;;;;;;5019816;28;20414;-71
2023/06/19 10:28:28;;;;;;;11.90;10.90;;;25.80;99.90;;;;;;5015034;28;20524;-68
2023/06/19 10:30:58;;;;;;;14.30;12.77;;;26.00;99.90;;;;;;5011507;28;20509;-71
2023/06/19 10:33:26;;;;;;;14.23;13.13;;;26.20;99.90;;;;;;5014610;28;20409;-70
2023/06/19 10:35:53;;;;;;;12.13;11.23;;;26.20;99.90;;;;;;5016675;28;20418;-71
2023/06/19 10:38:18;;;;;;;14.27;13.07;;;26.30;99.90;;;;;;5013872;28;21196;-72
2023/06/19 10:40:45;;;;;;;11.80;10.80;;;25.70;99.90;;;;;;5011626;28;20546;-69
2023/06/19 10:43:25;;;;;;;14.10;12.90;;;25.90;99.90;;;;;;5012863;28;20486;-70
2023/06/19 10:45:53;;;;;;;13.77;12.57;;;25.80;99.90;;;;;;5011554;28;20826;-69
2023/06/19 10:48:24;;;;;;;12.80;11.70;;;25.70;99.90;;;;;;5011157;28;20492;-69
2023/06/19 10:50:51;;;;;;;12.13;11.13;;;25.20;99.90;;;;;;5011095;28;20419;-70
2023/06/19 10:53:32;;;;;;;12.73;11.60;;;25.50;99.90;;;;;;5016729;28;20411;-69
2023/06/19 10:56:00;;;;;;;13.43;12.33;;;25.20;99.90;;;;;;5006472;28;20417;-70
2023/06/19 10:58:26;;;;;;;13.77;12.50;;;25.50;99.90;;;;;;5019122;28;20421;-70
2023/06/19 11:00:51;;;;;;;13.33;12.23;;;25.50;99.90;;;;;;5015755;28;20469;-69
2023/06/19 11:03:18;;;;;;;12.70;11.60;;;25.50;99.90;;;;;;5015190;28;20809;-70
2023/06/19 11:05:44;;;;;;;12.63;11.53;;;25.60;99.90;;;;;;5015107;28;20544;-70
2023/06/19 11:08:10;;;;;;;13.83;12.63;;;25.40;99.90;;;;;;5016722;28;20411;-69
2023/06/19 11:10:36;;;;;;;12.27;11.27;;;25.00;99.90;;;;;;5024491;28;20454;-69
2023/06/19 11:13:02;;;;;;;13.50;12.23;;;25.10;99.90;;;;;;5014998;28;20209;-68
2023/06/19 11:15:36;;;;;;;12.13;11.13;;;25.00;99.90;;;;;;5018469;28;20466;-67
2023/06/19 11:18:02;;;;;;;12.13;11.03;;;25.20;99.90;;;;;;5008894;28;20186;-69
2023/06/19 11:20:28;;;;;;;11.73;10.83;;;25.30;99.90;;;;;;5012788;28;20456;-71
2023/06/19 11:22:59;;;;;;;13.90;12.60;;;25.50;99.90;;;;;;5014927;28;20411;-70
2023/06/19 11:25:45;;;;;;;12.17;10.70;;;25.70;99.90;;;;;;5015788;28;20183;-69
2023/06/19 11:28:13;;;;;;;11.10;10.20;;;25.90;99.90;;;;;;5008313;28;20417;-69
2023/06/19 11:30:38;;;;;;;11.50;10.50;;;25.90;99.90;;;;;;5012003;28;20438;-69
2023/06/19 11:33:21;;;;;;;12.03;10.93;;;26.20;99.90;;;;;;5019837;28;20806;-68
2023/06/19 11:35:48;;;;;;;11.63;10.53;;;26.40;99.90;;;;;;5023898;28;20593;-70
2023/06/19 11:38:41;;;;;;;10.20;9.30;;;26.70;99.90;;;;;;5019020;28;20412;-70
2023/06/19 11:41:07;;;;;;;10.67;9.83;;;26.50;99.90;;;;;;5004866;28;20895;-71
2023/06/19 11:43:35;;;;;;;11.80;10.67;;;26.90;99.90;;;;;;5017959;28;20401;-70
2023/06/19 11:46:05;;;;;;;11.13;10.23;;;27.40;99.90;;;;;;5014218;28;20396;-69
2023/06/19 11:48:31;;;;;;;11.00;10.10;;;28.00;99.90;;;;;;5016905;28;20410;-70
2023/06/19 11:50:56;;;;;;;11.53;9.93;;;28.10;99.90;;;;;;5017182;28;20416;-70
2023/06/19 11:53:23;;;;;;;11.37;10.40;;;28.00;99.90;;;;;;5020486;28;20482;-70
2023/06/19 11:55:50;;;;;;;10.60;9.80;;;27.90;99.90;;;;;;5015302;28;20182;-69
2023/06/19 11:58:16;;;;;;;11.70;10.63;;;27.40;99.90;;;;;;5018162;28;20412;-71
2023/06/19 12:00:43;;;;;;;10.57;9.73;;;27.30;99.90;;;;;;5017217;28;20457;-71
2023/06/19 12:03:09;;;;;;;9.07;8.37;;;27.50;99.90;;;;;;5014119;28;20178;-71
2023/06/19 12:05:35;;;;;;;10.53;9.60;;;27.50;99.90;;;;;;5029099;28;20589;-70
2023/06/19 12:08:02;;;;;;;10.57;9.53;;;27.50;99.90;;;;;;5022247;28;20417;-70
2023/06/19 12:10:31;;;;;;;9.77;8.97;;;27.30;99.90;;;;;;5017113;28;20503;-71
2023/06/19 12:12:56;;;;;;;10.77;9.87;;;27.30;99.90;;;;;;5015683;28;20422;-69
2023/06/19 12:15:23;;;;;;;9.70;8.90;;;27.40;99.90;;;;;;5019342;28;20506;-69
2023/06/19 12:17:48;;;;;;;12.23;9.57;;;27.50;99.90;;;;;;5022391;28;20183;-70
2023/06/19 12:20:14;;;;;;;10.63;9.83;;;27.60;99.90;;;;;;5015898;28;20498;-68
2023/06/19 12:22:40;;;;;;;10.30;9.40;;;28.00;99.90;;;;;;5013729;28;20183;-69
2023/06/19 12:25:06;;;;;;;10.47;9.57;;;28.00;99.90;;;;;;5014520;28;20746;-70
2023/06/19 12:27:32;;;;;;;10.17;9.37;;;27.90;99.90;;;;;;5013297;28;20258;-70